»·PEaware :: N140SW KVCV-KAJO

N140SW :: KVCV-KAJO

FLIGHT INFORMATION

Flight Status: Arrived
Operator: Privately registered:
United States
More flights under this callsign
Pilot: Brad G. (30387)
Aircraft: PIAGGIO P-180 AVANTI
(P180)
More flights by this aircraft type
Origin: KVCV Socal Logistics
United States
Destination: KAJO Corona Mun
United States
More flights between these airports :: More routes between these airports
Route: +CAPTZ V442 PDZ
File this flight plan on PilotEdge
Remarks:
Altitude:
(Current/Filed)
19,000ft
Speed:
(Current/Filed)
250kts
Departed: 05-Oct-20 11:42 AM
Arrived: 05-Oct-20 12:08 PM
Distance/Time
Traveled:
43nm/0:26
Distance/Time
To Go:
Arrived

Flight Plot

Page will automatically refresh every two minutes.

Flight plan parsing failed; only flown route is shown


Map Options




Map Legend


Flown Route
Filed Route
Departure Airport
Arrival Airport
Navaid (VOR, NDB)
Fix

Horizontal Profiles

Position Reports

Time Latitude Longitude Heading Altitude Ground
Speed
05-Oct-20 10:54 34.589149 -117.375840 314 2869ft 0kts
05-Oct-20 10:54 34.589149 -117.375840 314 2869ft 0kts
05-Oct-20 10:55 34.589149 -117.375840 314 2869ft 0kts
05-Oct-20 10:57 34.589149 -117.375840 314 2869ft 0kts
05-Oct-20 10:57 34.589149 -117.375840 314 2869ft 0kts
05-Oct-20 10:58 34.589149 -117.375840 314 2869ft 0kts
05-Oct-20 10:59 34.589149 -117.375840 314 2869ft 0kts
05-Oct-20 11:00 34.589149 -117.375840 314 2869ft 0kts
05-Oct-20 11:01 34.589149 -117.375840 314 2869ft 0kts
05-Oct-20 11:02 34.589149 -117.375840 314 2869ft 0kts
05-Oct-20 11:03 34.589149 -117.375840 314 2869ft 0kts
05-Oct-20 11:04 34.589149 -117.375840 314 2869ft 0kts
05-Oct-20 11:05 34.589149 -117.375840 314 2869ft 0kts
05-Oct-20 11:06 34.589149 -117.375840 314 2869ft 0kts
05-Oct-20 11:07 34.589149 -117.375840 314 2869ft 0kts
05-Oct-20 11:08 34.589149 -117.375840 314 2869ft 0kts
05-Oct-20 11:09 34.589149 -117.375840 314 2869ft 0kts
05-Oct-20 11:10 34.589149 -117.375840 314 2869ft 0kts
05-Oct-20 11:11 34.589149 -117.375840 314 2869ft 0kts
05-Oct-20 11:12 34.589149 -117.375840 314 2869ft 0kts
05-Oct-20 11:13 34.589149 -117.375840 314 2869ft 0kts
05-Oct-20 11:14 34.589149 -117.375840 314 2869ft 0kts
05-Oct-20 11:15 34.589149 -117.375840 314 2869ft 0kts
05-Oct-20 11:16 34.589149 -117.375840 314 2869ft 0kts
05-Oct-20 11:17 34.589149 -117.375840 314 2869ft 0kts
05-Oct-20 11:18 34.589149 -117.375840 314 2869ft 0kts
05-Oct-20 11:19 34.589149 -117.375840 314 2869ft 0kts
05-Oct-20 11:20 34.589149 -117.375840 314 2869ft 0kts
05-Oct-20 11:21 34.589149 -117.375840 314 2869ft 0kts
05-Oct-20 11:22 34.589149 -117.375840 314 2869ft 0kts
05-Oct-20 11:23 34.589149 -117.375840 314 2869ft 0kts
05-Oct-20 11:24 34.589149 -117.375840 314 2869ft 0kts
05-Oct-20 11:25 34.589149 -117.375840 314 2869ft 0kts
05-Oct-20 11:26 34.589149 -117.375840 314 2869ft 0kts
05-Oct-20 11:27 34.589149 -117.375840 314 2869ft 0kts
05-Oct-20 11:28 34.589149 -117.375840 315 2869ft 0kts
05-Oct-20 11:29 34.589149 -117.375840 315 2869ft 0kts
05-Oct-20 11:30 34.589149 -117.375840 315 2869ft 0kts
05-Oct-20 11:31 34.589149 -117.375840 315 2869ft 0kts
05-Oct-20 11:32 34.589149 -117.375840 315 2869ft 0kts
05-Oct-20 11:33 34.589149 -117.375840 315 2869ft 0kts
05-Oct-20 11:34 34.589149 -117.375840 315 2869ft 0kts
05-Oct-20 11:35 34.589543 -117.376272 326 2869ft 11kts
05-Oct-20 11:36 34.593279 -117.371415 89 2859ft 27kts
05-Oct-20 11:37 34.595069 -117.367555 11 2852ft 21kts
05-Oct-20 11:38 34.598981 -117.366638 10 2845ft 0kts
05-Oct-20 11:39 34.598981 -117.366638 10 2845ft 0kts
05-Oct-20 11:40 34.600219 -117.366704 300 2842ft 6kts
05-Oct-20 11:41 34.587462 -117.382495 231 3096ft 160kts
05-Oct-20 11:42 34.582497 -117.435544 272 4721ft 165kts
05-Oct-20 11:43 34.584710 -117.492461 272 7826ft 175kts
05-Oct-20 11:44 34.588258 -117.552806 272 11200ft 190kts
05-Oct-20 11:45 34.595542 -117.617487 309 12943ft 203kts
05-Oct-20 11:46 34.627889 -117.593042 101 13060ft 189kts
05-Oct-20 11:47 34.619113 -117.524918 101 13006ft 213kts
05-Oct-20 11:48 34.585970 -117.472191 156 12987ft 221kts
05-Oct-20 11:49 34.528538 -117.441855 156 13070ft 242kts
05-Oct-20 11:50 34.466250 -117.408113 156 13002ft 251kts
05-Oct-20 11:51 34.399934 -117.372135 156 13058ft 262kts
05-Oct-20 11:52 34.333083 -117.335937 156 13019ft 266kts
05-Oct-20 11:53 34.262343 -117.323082 202 11875ft 269kts
05-Oct-20 11:54 34.198977 -117.361248 205 9903ft 236kts
05-Oct-20 11:55 34.142251 -117.395596 205 9018ft 228kts
05-Oct-20 11:56 34.088344 -117.428053 205 8758ft 213kts
05-Oct-20 11:57 34.037429 -117.458657 205 6851ft 196kts
05-Oct-20 11:58 33.989922 -117.487165 206 5010ft 182kts
05-Oct-20 11:59 33.946502 -117.513164 207 3203ft 170kts
05-Oct-20 12:00 33.911394 -117.547662 232 3094ft 168kts
05-Oct-20 12:01 33.898014 -117.586690 270 899ft 119kts
05-Oct-20 12:02 33.900102 -117.624420 306 1470ft 135kts
05-Oct-20 12:03 33.915126 -117.599247 95 1634ft 144kts
05-Oct-20 12:04 33.910276 -117.551721 100 1882ft 145kts
05-Oct-20 12:05 33.888184 -117.556248 296 1375ft 142kts
05-Oct-20 12:06 33.897747 -117.591230 268 677ft 102kts
05-Oct-20 12:07 33.896872 -117.602308 124 538ft 4kts

Navigation Log

Ident Type
Flight plan parsing failed, navigation log unavailable